sensor_id;sensor_type;location;lat;lon;timestamp;pressure;altitude;pressure_sealevel;temperature;humidity
29935;BME280;19905;53.370;-6.314;2023-02-28T00:01:57;103229.69;;;6.61;100.00
29935;BME280;19905;53.370;-6.314;2023-02-28T00:04:26;103218.31;;;6.60;100.00
29935;BME280;19905;53.370;-6.314;2023-02-28T00:07:01;103229.59;;;6.64;100.00
29935;BME280;19905;53.370;-6.314;2023-02-28T00:09:29;103226.97;;;6.64;100.00
29935;BME280;19905;53.370;-6.314;2023-02-28T00:12:00;103234.84;;;6.64;100.00
29935;BME280;19905;53.370;-6.314;2023-02-28T00:14:38;103234.84;;;6.64;100.00
29935;BME280;19905;53.370;-6.314;2023-02-28T00:17:12;103233.09;;;6.66;100.00
29935;BME280;19905;53.370;-6.314;2023-02-28T00:19:41;103228.75;;;6.65;100.00
29935;BME280;19905;53.370;-6.314;2023-02-28T00:22:09;103234.84;;;6.66;100.00
29935;BME280;19905;53.370;-6.314;2023-02-28T00:24:40;103244.50;;;6.65;100.00
29935;BME280;19905;53.370;-6.314;2023-02-28T00:27:10;103239.25;;;6.65;100.00
29935;BME280;19905;53.370;-6.314;2023-02-28T00:29:40;103239.28;;;6.62;100.00
29935;BME280;19905;53.370;-6.314;2023-02-28T00:32:09;103240.13;;;6.64;100.00
29935;BME280;19905;53.370;-6.314;2023-02-28T00:34:39;103244.50;;;6.65;100.00
29935;BME280;19905;53.370;-6.314;2023-02-28T00:37:14;103248.84;;;6.66;100.00
29935;BME280;19905;53.370;-6.314;2023-02-28T00:39:43;103252.34;;;6.67;100.00
29935;BME280;19905;53.370;-6.314;2023-02-28T00:42:14;103251.47;;;6.66;100.00
29935;BME280;19905;53.370;-6.314;2023-02-28T00:44:43;103255.88;;;6.64;100.00
29935;BME280;19905;53.370;-6.314;2023-02-28T00:47:18;103245.44;;;6.61;100.00
29935;BME280;19905;53.370;-6.314;2023-02-28T00:49:46;103247.13;;;6.63;100.00
29935;BME280;19905;53.370;-6.314;2023-02-28T00:52:15;103248.06;;;6.59;100.00
29935;BME280;19905;53.370;-6.314;2023-02-28T00:54:44;103248.16;;;6.55;100.00
29935;BME280;19905;53.370;-6.314;2023-02-28T00:57:20;103254.31;;;6.54;100.00
29935;BME280;19905;53.370;-6.314;2023-02-28T00:59:52;103254.28;;;6.57;100.00
29935;BME280;19905;53.370;-6.314;2023-02-28T01:02:28;103251.59;;;6.58;100.00
29935;BME280;19905;53.370;-6.314;2023-02-28T01:04:59;103253.34;;;6.59;100.00
29935;BME280;19905;53.370;-6.314;2023-02-28T01:07:30;103261.22;;;6.61;100.00
29935;BME280;19905;53.370;-6.314;2023-02-28T01:10:02;103257.69;;;6.62;100.00
29935;BME280;19905;53.370;-6.314;2023-02-28T01:12:34;103257.69;;;6.62;100.00
29935;BME280;19905;53.370;-6.314;2023-02-28T01:15:06;103265.56;;;6.62;100.00
29935;BME280;19905;53.370;-6.314;2023-02-28T01:17:41;103266.41;;;6.62;100.00
29935;BME280;19905;53.370;-6.314;2023-02-28T01:20:11;103263.84;;;6.61;100.00
29935;BME280;19905;53.370;-6.314;2023-02-28T01:22:40;103265.56;;;6.62;100.00
29935;BME280;19905;53.370;-6.314;2023-02-28T01:25:14;103264.69;;;6.61;100.00
29935;BME280;19905;53.370;-6.314;2023-02-28T01:27:45;103262.06;;;6.61;100.00
29935;BME280;19905;53.370;-6.314;2023-02-28T01:30:14;103266.47;;;6.61;100.00
29935;BME280;19905;53.370;-6.314;2023-02-28T01:32:43;103261.22;;;6.59;100.00
29935;BME280;19905;53.370;-6.314;2023-02-28T01:35:12;103260.34;;;6.60;100.00
29935;BME280;19905;53.370;-6.314;2023-02-28T01:37:40;103263.84;;;6.61;100.00
29935;BME280;19905;53.370;-6.314;2023-02-28T01:40:10;103261.25;;;6.58;100.00
29935;BME280;19905;53.370;-6.314;2023-02-28T01:42:38;103263.91;;;6.56;100.00
29935;BME280;19905;53.370;-6.314;2023-02-28T01:45:22;103258.66;;;6.56;100.00
29935;BME280;19905;53.370;-6.314;2023-02-28T01:47:55;103267.34;;;6.60;100.00
29935;BME280;19905;53.370;-6.314;2023-02-28T01:50:29;103268.22;;;6.60;100.00
29935;BME280;19905;53.370;-6.314;2023-02-28T01:53:05;103268.19;;;6.62;100.00
29935;BME280;19905;53.370;-6.314;2023-02-28T01:55:36;103260.25;;;6.65;100.00
29935;BME280;19905;53.370;-6.314;2023-02-28T01:58:11;103264.59;;;6.66;100.00
29935;BME280;19905;53.370;-6.314;2023-02-28T02:00:41;103257.63;;;6.65;100.00
29935;BME280;19905;53.370;-6.314;2023-02-28T02:03:12;103262.09;;;6.60;100.00
29935;BME280;19905;53.370;-6.314;2023-02-28T02:08:18;103258.66;;;6.56;100.00
29935;BME280;19905;53.370;-6.314;2023-02-28T02:10:50;103263.00;;;6.57;100.00
29935;BME280;19905;53.370;-6.314;2023-02-28T02:13:33;103259.53;;;6.57;100.00
29935;BME280;19905;53.370;-6.314;2023-02-28T02:16:23;103262.97;;;6.59;100.00
29935;BME280;19905;53.370;-6.314;2023-02-28T02:19:03;103255.97;;;6.59;100.00
29935;BME280;19905;53.370;-6.314;2023-02-28T02:25:03;103261.13;;;6.64;100.00
29935;BME280;19905;53.370;-6.314;2023-02-28T02:27:48;103261.16;;;6.62;100.00
29935;BME280;19905;53.370;-6.314;2023-02-28T02:30:44;103259.44;;;6.61;100.00
29935;BME280;19905;53.370;-6.314;2023-02-28T02:36:33;103270.78;;;6.63;100.00
29935;BME280;19905;53.370;-6.314;2023-02-28T02:39:14;103272.53;;;6.65;100.00
29935;BME280;19905;53.370;-6.314;2023-02-28T02:41:49;103266.47;;;6.61;100.00
29935;BME280;19905;53.370;-6.314;2023-02-28T02:44:23;103262.06;;;6.61;100.00
29935;BME280;19905;53.370;-6.314;2023-02-28T02:46:58;103268.22;;;6.60;100.00
29935;BME280;19905;53.370;-6.314;2023-02-28T02:49:32;103255.94;;;6.61;100.00
29935;BME280;19905;53.370;-6.314;2023-02-28T02:52:06;103255.94;;;6.61;100.00
29935;BME280;19905;53.370;-6.314;2023-02-28T02:54:38;103260.25;;;6.63;100.00
29935;BME280;19905;53.370;-6.314;2023-02-28T02:57:12;103260.31;;;6.62;100.00
29935;BME280;19905;53.370;-6.314;2023-02-28T02:59:43;103265.59;;;6.60;100.00
29935;BME280;19905;53.370;-6.314;2023-02-28T03:02:14;103262.06;;;6.61;100.00
29935;BME280;19905;53.370;-6.314;2023-02-28T03:04:46;103255.94;;;6.61;100.00
29935;BME280;19905;53.370;-6.314;2023-02-28T03:07:26;103256.81;;;6.61;100.00
29935;BME280;19905;53.370;-6.314;2023-02-28T03:09:56;103252.44;;;6.62;100.00
29935;BME280;19905;53.370;-6.314;2023-02-28T03:12:33;103250.63;;;6.64;100.00
29935;BME280;19905;53.370;-6.314;2023-02-28T03:15:14;103253.25;;;6.66;100.00
29935;BME280;19905;53.370;-6.314;2023-02-28T03:18:01;103255.00;;;6.65;100.00
29935;BME280;19905;53.370;-6.314;2023-02-28T03:20:39;103258.44;;;6.67;100.00
29935;BME280;19905;53.370;-6.314;2023-02-28T03:23:17;103261.97;;;6.66;100.00
29935;BME280;19905;53.370;-6.314;2023-02-28T03:25:56;103262.03;;;6.65;100.00
29935;BME280;19905;53.370;-6.314;2023-02-28T03:28:31;103269.00;;;6.64;100.00
29935;BME280;19905;53.370;-6.314;2023-02-28T03:31:09;103262.94;;;6.62;100.00
29935;BME280;19905;53.370;-6.314;2023-02-28T03:33:45;103270.84;;;6.60;100.00
29935;BME280;19905;53.370;-6.314;2023-02-28T03:36:25;103269.09;;;6.61;100.00
29935;BME280;19905;53.370;-6.314;2023-02-28T03:38:59;103271.63;;;6.64;100.00
29935;BME280;19905;53.370;-6.314;2023-02-28T03:41:35;103271.63;;;6.66;100.00
29935;BME280;19905;53.370;-6.314;2023-02-28T03:44:08;103270.72;;;6.67;100.00
29935;BME280;19905;53.370;-6.314;2023-02-28T03:46:42;103276.88;;;6.66;100.00
29935;BME280;19905;53.370;-6.314;2023-02-28T03:49:16;103272.47;;;6.66;100.00
29935;BME280;19905;53.370;-6.314;2023-02-28T03:51:48;103273.38;;;6.65;100.00
29935;BME280;19905;53.370;-6.314;2023-02-28T03:54:23;103275.16;;;6.65;100.00
29935;BME280;19905;53.370;-6.314;2023-02-28T03:57:00;103279.50;;;6.64;100.00
29935;BME280;19905;53.370;-6.314;2023-02-28T03:59:34;103281.28;;;6.63;100.00
29935;BME280;19905;53.370;-6.314;2023-02-28T04:02:05;103280.38;;;6.66;100.00
29935;BME280;19905;53.370;-6.314;2023-02-28T04:04:34;103282.16;;;6.62;100.00
29935;BME280;19905;53.370;-6.314;2023-02-28T04:07:05;103282.13;;;6.64;100.00
29935;BME280;19905;53.370;-6.314;2023-02-28T04:09:35;103279.50;;;6.64;100.00
29935;BME280;19905;53.370;-6.314;2023-02-28T04:12:06;103276.88;;;6.64;100.00
29935;BME280;19905;53.370;-6.314;2023-02-28T04:14:34;103272.53;;;6.65;100.00
29935;BME280;19905;53.370;-6.314;2023-02-28T04:17:03;103278.63;;;6.65;100.00
29935;BME280;19905;53.370;-6.314;2023-02-28T04:19:32;103283.88;;;6.65;100.00
29935;BME280;19905;53.370;-6.314;2023-02-28T04:22:01;103278.63;;;6.65;100.00
29935;BME280;19905;53.370;-6.314;2023-02-28T04:24:30;103281.25;;;6.65;100.00
29935;BME280;19905;53.370;-6.314;2023-02-28T04:27:00;103282.16;;;6.62;100.00
29935;BME280;19905;53.370;-6.314;2023-02-28T04:29:31;103283.06;;;6.61;100.00
29935;BME280;19905;53.370;-6.314;2023-02-28T04:32:00;103281.31;;;6.62;100.00
29935;BME280;19905;53.370;-6.314;2023-02-28T04:34:31;103291.81;;;6.62;100.00
29935;BME280;19905;53.370;-6.314;2023-02-28T04:37:01;103291.81;;;6.62;100.00
29935;BME280;19905;53.370;-6.314;2023-02-28T04:39:40;103296.16;;;6.65;100.00
29935;BME280;19905;53.370;-6.314;2023-02-28T04:42:11;103303.16;;;6.64;100.00
29935;BME280;19905;53.370;-6.314;2023-02-28T04:44:41;103304.94;;;6.62;100.00
29935;BME280;19905;53.370;-6.314;2023-02-28T04:47:11;103305.00;;;6.60;100.00
29935;BME280;19905;53.370;-6.314;2023-02-28T04:49:39;103312.03;;;6.57;100.00
29935;BME280;19905;53.370;-6.314;2023-02-28T04:52:08;103301.59;;;6.54;100.00
29935;BME280;19905;53.370;-6.314;2023-02-28T04:54:38;103315.66;;;6.51;100.00
29935;BME280;19905;53.370;-6.314;2023-02-28T04:57:07;103320.03;;;6.51;100.00
29935;BME280;19905;53.370;-6.314;2023-02-28T04:59:41;103316.59;;;6.47;100.00
29935;BME280;19905;53.370;-6.314;2023-02-28T05:02:12;103326.28;;;6.44;100.00
29935;BME280;19905;53.370;-6.314;2023-02-28T05:04:41;103330.69;;;6.42;100.00
29935;BME280;19905;53.370;-6.314;2023-02-28T05:07:13;103337.75;;;6.36;100.00
29935;BME280;19905;53.370;-6.314;2023-02-28T05:09:41;103331.91;;;6.21;100.00
29935;BME280;19905;53.370;-6.314;2023-02-28T05:12:10;103335.50;;;6.14;100.00
29935;BME280;19905;53.370;-6.314;2023-02-28T05:14:41;103334.72;;;6.08;100.00
29935;BME280;19905;53.370;-6.314;2023-02-28T05:17:11;103345.31;;;6.02;100.00
29935;BME280;19905;53.370;-6.314;2023-02-28T05:19:39;103347.22;;;5.93;100.00
29935;BME280;19905;53.370;-6.314;2023-02-28T05:22:14;103353.56;;;5.75;100.00
29935;BME280;19905;53.370;-6.314;2023-02-28T05:24:45;103343.94;;;5.75;100.00
29935;BME280;19905;53.370;-6.314;2023-02-28T05:27:13;103349.22;;;5.71;100.00
29935;BME280;19905;53.370;-6.314;2023-02-28T05:29:46;103347.53;;;5.68;100.00
29935;BME280;19905;53.370;-6.314;2023-02-28T05:32:15;103349.31;;;5.63;100.00
29935;BME280;19905;53.370;-6.314;2023-02-28T05:34:44;103352.75;;;5.70;100.00
29935;BME280;19905;53.370;-6.314;2023-02-28T05:37:14;103351.03;;;5.67;100.00
29935;BME280;19905;53.370;-6.314;2023-02-28T05:39:44;103351.03;;;5.67;100.00
29935;BME280;19905;53.370;-6.314;2023-02-28T05:42:12;103354.47;;;5.71;100.00
29935;BME280;19905;53.370;-6.314;2023-02-28T05:44:41;103355.34;;;5.73;100.00
29935;BME280;19905;53.370;-6.314;2023-02-28T05:47:11;103351.81;;;5.72;100.00
29935;BME280;19905;53.370;-6.314;2023-02-28T05:49:45;103350.97;;;5.72;100.00
29935;BME280;19905;53.370;-6.314;2023-02-28T05:52:14;103365.91;;;5.67;100.00
29935;BME280;19905;53.370;-6.314;2023-02-28T05:54:42;103371.13;;;5.68;100.00
29935;BME280;19905;53.370;-6.314;2023-02-28T05:57:11;103358.03;;;5.68;100.00
29935;BME280;19905;53.370;-6.314;2023-02-28T05:59:50;103358.06;;;5.65;100.00
29935;BME280;19905;53.370;-6.314;2023-02-28T06:02:20;103358.94;;;5.63;100.00
29935;BME280;19905;53.370;-6.314;2023-02-28T06:04:49;103359.00;;;5.59;100.00
29935;BME280;19905;53.370;-6.314;2023-02-28T06:07:20;103356.38;;;5.59;100.00
29935;BME280;19905;53.370;-6.314;2023-02-28T06:09:49;103357.25;;;5.60;100.00
29935;BME280;19905;53.370;-6.314;2023-02-28T06:12:18;103357.19;;;5.65;100.00
29935;BME280;19905;53.370;-6.314;2023-02-28T06:14:47;103361.56;;;5.64;100.00
29935;BME280;19905;53.370;-6.314;2023-02-28T06:17:15;103359.81;;;5.65;100.00
29935;BME280;19905;53.370;-6.314;2023-02-28T06:19:46;103364.13;;;5.67;100.00
29935;BME280;19905;53.370;-6.314;2023-02-28T06:22:17;103360.69;;;5.65;100.00
29935;BME280;19905;53.370;-6.314;2023-02-28T06:24:47;103364.19;;;5.63;100.00
29935;BME280;19905;53.370;-6.314;2023-02-28T06:27:22;103365.13;;;5.58;100.00
29935;BME280;19905;53.370;-6.314;2023-02-28T06:29:54;103369.56;;;5.53;100.00
29935;BME280;19905;53.370;-6.314;2023-02-28T06:32:27;103370.44;;;5.52;100.00
29935;BME280;19905;53.370;-6.314;2023-02-28T06:34:59;103375.72;;;5.51;100.00
29935;BME280;19905;53.370;-6.314;2023-02-28T06:37:30;103377.50;;;5.47;100.00
29935;BME280;19905;53.370;-6.314;2023-02-28T06:39:59;103381.97;;;5.41;100.00
29935;BME280;19905;53.370;-6.314;2023-02-28T06:44:59;103389.03;;;5.34;100.00
29935;BME280;19905;53.370;-6.314;2023-02-28T06:47:37;103390.75;;;5.37;100.00
29935;BME280;19905;53.370;-6.314;2023-02-28T06:50:11;103400.31;;;5.41;100.00
29935;BME280;19905;53.370;-6.314;2023-02-28T06:52:46;103399.41;;;5.43;100.00
29935;BME280;19905;53.370;-6.314;2023-02-28T06:55:18;103401.09;;;5.47;100.00
29935;BME280;19905;53.370;-6.314;2023-02-28T06:57:46;103408.94;;;5.50;100.00
29935;BME280;19905;53.370;-6.314;2023-02-28T07:00:19;103412.38;;;5.54;100.00
29935;BME280;19905;53.370;-6.314;2023-02-28T07:02:55;103415.88;;;5.54;100.00
29935;BME280;19905;53.370;-6.314;2023-02-28T07:05:27;103420.28;;;5.51;100.00
29935;BME280;19905;53.370;-6.314;2023-02-28T07:07:57;103426.44;;;5.48;100.00
29935;BME280;19905;53.370;-6.314;2023-02-28T07:10:27;103416.81;;;5.50;100.00
29935;BME280;19905;53.370;-6.314;2023-02-28T07:13:04;103425.47;;;5.54;100.00
29935;BME280;19905;53.370;-6.314;2023-02-28T07:15:40;103432.47;;;5.53;100.00
29935;BME280;19905;53.370;-6.314;2023-02-28T07:18:10;103427.25;;;5.52;100.00
29935;BME280;19905;53.370;-6.314;2023-02-28T07:20:41;103431.66;;;5.51;100.00
29935;BME280;19905;53.370;-6.314;2023-02-28T07:23:10;103427.28;;;5.50;100.00
29935;BME280;19905;53.370;-6.314;2023-02-28T07:25:42;103431.66;;;5.48;100.00
29935;BME280;19905;53.370;-6.314;2023-02-28T07:28:13;103432.56;;;5.47;100.00
29935;BME280;19905;53.370;-6.314;2023-02-28T07:30:42;103437.88;;;5.41;100.00
29935;BME280;19905;53.370;-6.314;2023-02-28T07:33:11;103439.56;;;5.47;100.00
29935;BME280;19905;53.370;-6.314;2023-02-28T07:36:00;103444.88;;;5.39;100.00
29935;BME280;19905;53.370;-6.314;2023-02-28T07:38:31;103452.78;;;5.34;100.00
29935;BME280;19905;53.370;-6.314;2023-02-28T07:41:03;103453.69;;;5.30;100.00
29935;BME280;19905;53.370;-6.314;2023-02-28T07:43:35;103458.09;;;5.31;100.00
29935;BME280;19905;53.370;-6.314;2023-02-28T07:46:06;103458.88;;;5.38;100.00
29935;BME280;19905;53.370;-6.314;2023-02-28T07:48:37;103458.94;;;5.32;100.00
29935;BME280;19905;53.370;-6.314;2023-02-28T07:51:07;103461.47;;;5.40;100.00
29935;BME280;19905;53.370;-6.314;2023-02-28T07:53:36;103458.00;;;5.38;100.00
29935;BME280;19905;53.370;-6.314;2023-02-28T07:56:06;103467.59;;;5.39;100.00
29935;BME280;19905;53.370;-6.314;2023-02-28T07:58:37;103458.88;;;5.38;100.00
29935;BME280;19905;53.370;-6.314;2023-02-28T08:01:06;103465.88;;;5.38;100.00
29935;BME280;19905;53.370;-6.314;2023-02-28T08:03:45;103464.97;;;5.39;100.00
29935;BME280;19905;53.370;-6.314;2023-02-28T08:06:20;103465.00;;;5.37;100.00
29935;BME280;19905;53.370;-6.314;2023-02-28T08:08:50;103461.53;;;5.37;100.00
29935;BME280;19905;53.370;-6.314;2023-02-28T08:11:23;103465.88;;;5.38;100.00
29935;BME280;19905;53.370;-6.314;2023-02-28T08:13:55;103465.75;;;5.48;100.00
29935;BME280;19905;53.370;-6.314;2023-02-28T08:16:24;103466.66;;;5.44;100.00
29935;BME280;19905;53.370;-6.314;2023-02-28T08:18:53;103464.91;;;5.46;100.00
29935;BME280;19905;53.370;-6.314;2023-02-28T08:21:26;103471.00;;;5.50;100.00
29935;BME280;19905;53.370;-6.314;2023-02-28T08:23:57;103469.22;;;5.52;100.00
29935;BME280;19905;53.370;-6.314;2023-02-28T08:26:26;103471.75;;;5.59;100.00
29935;BME280;19905;53.370;-6.314;2023-02-28T08:28:56;103466.47;;;5.63;100.00
29935;BME280;19905;53.370;-6.314;2023-02-28T08:31:29;103467.38;;;5.60;100.00
29935;BME280;19905;53.370;-6.314;2023-02-28T08:33:59;103466.47;;;5.64;100.00
29935;BME280;19905;53.370;-6.314;2023-02-28T08:36:29;103470.72;;;5.73;100.00
29935;BME280;19905;53.370;-6.314;2023-02-28T08:38:59;103472.44;;;5.75;100.00
29935;BME280;19905;53.370;-6.314;2023-02-28T08:41:29;103465.34;;;5.83;100.00
29935;BME280;19905;53.370;-6.314;2023-02-28T08:43:58;103470.56;;;5.86;100.00
29935;BME280;19905;53.370;-6.314;2023-02-28T08:46:28;103461.78;;;5.92;100.00
29935;BME280;19905;53.370;-6.314;2023-02-28T08:48:57;103467.84;;;5.97;100.00
29935;BME280;19905;53.370;-6.314;2023-02-28T08:51:30;103467.81;;;5.99;100.00
29935;BME280;19905;53.370;-6.314;2023-02-28T08:54:00;103463.50;;;5.93;100.00
29935;BME280;19905;53.370;-6.314;2023-02-28T08:56:29;103472.19;;;5.98;100.00
29935;BME280;19905;53.370;-6.314;2023-02-28T08:58:58;103463.41;;;5.99;100.00
29935;BME280;19905;53.370;-6.314;2023-02-28T09:01:28;103465.97;;;6.04;100.00
29935;BME280;19905;53.370;-6.314;2023-02-28T09:03:58;103466.81;;;6.07;100.00
29935;BME280;19905;53.370;-6.314;2023-02-28T09:06:27;103463.34;;;6.04;100.00
29935;BME280;19905;53.370;-6.314;2023-02-28T09:08:59;103457.34;;;5.97;100.00
29935;BME280;19905;53.370;-6.314;2023-02-28T09:11:29;103462.63;;;5.94;100.00
29935;BME280;19905;53.370;-6.314;2023-02-28T09:13:59;103464.28;;;6.01;100.00
29935;BME280;19905;53.370;-6.314;2023-02-28T09:16:27;103462.53;;;6.02;100.00
29935;BME280;19905;53.370;-6.314;2023-02-28T09:18:56;103466.84;;;6.06;100.00
29935;BME280;19905;53.370;-6.314;2023-02-28T09:21:26;103472.00;;;6.12;100.00
29935;BME280;19905;53.370;-6.314;2023-02-28T09:23:56;103465.84;;;6.13;100.00
29935;BME280;19905;53.370;-6.314;2023-02-28T09:26:27;103471.97;;;6.14;100.00
29935;BME280;19905;53.370;-6.314;2023-02-28T09:29:08;103470.25;;;6.14;100.00
29935;BME280;19905;53.370;-6.314;2023-02-28T09:31:39;103464.91;;;6.20;100.00
29935;BME280;19905;53.370;-6.314;2023-02-28T09:34:10;103476.28;;;6.19;100.00
29935;BME280;19905;53.370;-6.314;2023-02-28T09:36:38;103478.00;;;6.22;100.00
29935;BME280;19905;53.370;-6.314;2023-02-28T09:39:13;103475.38;;;6.22;100.00
29935;BME280;19905;53.370;-6.314;2023-02-28T09:41:47;103472.78;;;6.20;100.00
29935;BME280;19905;53.370;-6.314;2023-02-28T09:44:22;103469.16;;;6.29;100.00
29935;BME280;19905;53.370;-6.314;2023-02-28T09:46:57;103464.81;;;6.28;100.00
29935;BME280;19905;53.370;-6.314;2023-02-28T09:49:36;103469.84;;;6.40;100.00
29935;BME280;19905;53.370;-6.314;2023-02-28T09:52:10;103473.31;;;6.44;100.00
29935;BME280;19905;53.370;-6.314;2023-02-28T09:54:40;103467.03;;;6.54;100.00
29935;BME280;19905;53.370;-6.314;2023-02-28T09:57:17;103466.91;;;6.61;100.00
29935;BME280;19905;53.370;-6.314;2023-02-28T10:00:02;103466.06;;;6.61;100.00
29935;BME280;19905;53.370;-6.314;2023-02-28T10:02:58;103464.34;;;6.57;100.00
29935;BME280;19905;53.370;-6.314;2023-02-28T10:05:33;103463.34;;;6.64;100.00
29935;BME280;19905;53.370;-6.314;2023-02-28T10:08:10;103472.78;;;6.77;100.00
29935;BME280;19905;53.370;-6.314;2023-02-28T10:10:42;103466.81;;;6.68;100.00
29935;BME280;19905;53.370;-6.314;2023-02-28T10:13:23;103466.69;;;6.75;100.00
29935;BME280;19905;53.370;-6.314;2023-02-28T10:15:58;103458.50;;;6.94;100.00
29935;BME280;19905;53.370;-6.314;2023-02-28T10:18:37;103462.19;;;6.83;100.00
29935;BME280;19905;53.370;-6.314;2023-02-28T10:21:17;103460.34;;;6.87;100.00
29935;BME280;19905;53.370;-6.314;2023-02-28T10:23:49;103464.78;;;6.85;100.00
29935;BME280;19905;53.370;-6.314;2023-02-28T10:26:21;103467.59;;;6.74;100.00
29935;BME280;19905;53.370;-6.314;2023-02-28T10:28:53;103469.13;;;6.87;100.00
29935;BME280;19905;53.370;-6.314;2023-02-28T10:31:23;103464.75;;;6.86;100.00
29935;BME280;19905;53.370;-6.314;2023-02-28T10:33:52;103469.28;;;6.78;100.00
29935;BME280;19905;53.370;-6.314;2023-02-28T10:36:22;103468.47;;;6.73;100.00
29935;BME280;19905;53.370;-6.314;2023-02-28T10:38:50;103467.81;;;6.60;100.00
29935;BME280;19905;53.370;-6.314;2023-02-28T10:41:28;103465.75;;;6.78;100.00
29935;BME280;19905;53.370;-6.314;2023-02-28T10:44:17;103473.00;;;7.14;100.00
29935;BME280;19905;53.370;-6.314;2023-02-28T10:46:49;103467.91;;;7.05;100.00
29935;BME280;19905;53.370;-6.314;2023-02-28T10:49:22;103460.34;;;6.88;100.00
29935;BME280;19905;53.370;-6.314;2023-02-28T10:51:53;103453.53;;;6.78;100.00
29935;BME280;19905;53.370;-6.314;2023-02-28T10:54:27;103460.38;;;6.85;100.00
29935;BME280;19905;53.370;-6.314;2023-02-28T10:57:16;103465.41;;;6.99;100.00
29935;BME280;19905;53.370;-6.314;2023-02-28T10:59:52;103471.28;;;7.15;100.00
29935;BME280;19905;53.370;-6.314;2023-02-28T11:02:33;103458.03;;;7.21;100.00
29935;BME280;19905;53.370;-6.314;2023-02-28T11:05:23;103456.31;;;7.19;100.00
29935;BME280;19905;53.370;-6.314;2023-02-28T11:07:55;103452.50;;;7.35;100.00
29935;BME280;19905;53.370;-6.314;2023-02-28T11:10:28;103444.56;;;7.36;100.00
29935;BME280;19905;53.370;-6.314;2023-02-28T11:13:02;103447.38;;;7.29;100.00
29935;BME280;19905;53.370;-6.314;2023-02-28T11:15:34;103445.59;;;7.29;100.00
29935;BME280;19905;53.370;-6.314;2023-02-28T11:18:21;103442.06;;;7.30;100.00
29935;BME280;19905;53.370;-6.314;2023-02-28T11:20:54;103448.31;;;7.23;100.00
29935;BME280;19905;53.370;-6.314;2023-02-28T11:23:27;103450.13;;;7.21;100.00
29935;BME280;19905;53.370;-6.314;2023-02-28T11:26:00;103437.56;;;7.37;100.00
29935;BME280;19905;53.370;-6.314;2023-02-28T11:28:31;103442.41;;;7.12;100.00
29935;BME280;19905;53.370;-6.314;2023-02-28T11:31:05;103444.97;;;7.17;100.00
29935;BME280;19905;53.370;-6.314;2023-02-28T11:33:42;103447.06;;;7.44;100.00
29935;BME280;19905;53.370;-6.314;2023-02-28T11:36:14;103444.22;;;7.56;100.00
29935;BME280;19905;53.370;-6.314;2023-02-28T11:38:50;103446.13;;;7.47;100.00
29935;BME280;19905;53.370;-6.314;2023-02-28T11:41:36;103453.06;;;7.51;100.00
29935;BME280;19905;53.370;-6.314;2023-02-28T11:44:21;103450.69;;;7.38;100.00
29935;BME280;19905;53.370;-6.314;2023-02-28T11:46:57;103452.69;;;7.26;100.00
29935;BME280;19905;53.370;-6.314;2023-02-28T11:49:34;103443.34;;;7.08;100.00
29935;BME280;19905;53.370;-6.314;2023-02-28T11:52:14;103448.91;;;6.91;100.00
29935;BME280;19905;53.370;-6.314;2023-02-28T11:55:04;103453.56;;;6.75;100.00
29935;BME280;19905;53.370;-6.314;2023-02-28T11:58:04;103455.41;;;6.69;100.00
29935;BME280;19905;53.370;-6.314;2023-02-28T12:00:50;103469.34;;;6.74;100.00
29935;BME280;19905;53.370;-6.314;2023-02-28T12:03:33;103463.97;;;6.81;100.00
29935;BME280;19905;53.370;-6.314;2023-02-28T12:06:20;103471.00;;;6.78;100.00
29935;BME280;19905;53.370;-6.314;2023-02-28T12:08:58;103465.28;;;7.05;100.00
29935;BME280;19905;53.370;-6.314;2023-02-28T12:11:37;103458.25;;;7.07;100.00
29935;BME280;19905;53.370;-6.314;2023-02-28T12:14:25;103453.41;;;7.32;100.00
29935;BME280;19905;53.370;-6.314;2023-02-28T12:17:04;103440.78;;;7.51;100.00
29935;BME280;19905;53.370;-6.314;2023-02-28T12:19:44;103444.88;;;7.66;100.00
29935;BME280;19905;53.370;-6.314;2023-02-28T12:22:29;103430.81;;;7.67;100.00
29935;BME280;19905;53.370;-6.314;2023-02-28T12:25:24;103431.34;;;7.84;100.00
29935;BME280;19905;53.370;-6.314;2023-02-28T12:28:00;103432.41;;;7.74;100.00
29935;BME280;19905;53.370;-6.314;2023-02-28T12:30:31;103429.63;;;7.82;100.00
29935;BME280;19905;53.370;-6.314;2023-02-28T12:33:05;103426.38;;;7.69;100.00
29935;BME280;19905;53.370;-6.314;2023-02-28T12:35:40;103422.34;;;7.53;100.00
29935;BME280;19905;53.370;-6.314;2023-02-28T12:38:13;103411.75;;;7.98;100.00
29935;BME280;19905;53.370;-6.314;2023-02-28T12:40:50;103404.13;;;7.85;100.00
29935;BME280;19905;53.370;-6.314;2023-02-28T12:43:27;103420.97;;;7.77;100.00
29935;BME280;19905;53.370;-6.314;2023-02-28T12:46:02;103410.44;;;7.35;100.00
29935;BME280;19905;53.370;-6.314;2023-02-28T12:48:37;103411.34;;;7.32;100.00
29935;BME280;19905;53.370;-6.314;2023-02-28T12:51:11;103412.28;;;7.30;100.00
29935;BME280;19905;53.370;-6.314;2023-02-28T12:53:51;103411.59;;;7.20;100.00
29935;BME280;19905;53.370;-6.314;2023-02-28T12:56:32;103409.94;;;7.16;100.00
29935;BME280;19905;53.370;-6.314;2023-02-28T12:59:04;103410.59;;;7.26;100.00
29935;BME280;19905;53.370;-6.314;2023-02-28T13:05:01;103411.06;;;7.46;100.00
29935;BME280;19905;53.370;-6.314;2023-02-28T13:07:53;103399.06;;;7.33;100.00
29935;BME280;19905;53.370;-6.314;2023-02-28T13:10:39;103400.34;;;7.12;100.00
29935;BME280;19905;53.370;-6.314;2023-02-28T13:13:15;103401.28;;;7.09;100.00
29935;BME280;19905;53.370;-6.314;2023-02-28T13:16:03;103393.63;;;6.97;100.00
29935;BME280;19905;53.370;-6.314;2023-02-28T13:18:36;103398.81;;;7.00;100.00
29935;BME280;19905;53.370;-6.314;2023-02-28T13:21:08;103390.97;;;6.99;100.00
29935;BME280;19905;53.370;-6.314;2023-02-28T13:23:58;103390.16;;;6.97;100.00
29935;BME280;19905;53.370;-6.314;2023-02-28T13:29:56;103382.34;;;6.91;100.00
29935;BME280;19905;53.370;-6.314;2023-02-28T13:32:33;103388.22;;;7.06;100.00